Time;durP1;ratioP1;P1;durP2;ratioP2;P2;SDS_P1;SDS_P2;PMS_P1;PMS_P2;Temp;Humidity;BMP_temperature;BMP_pressure;BME280_temperature;BME280_humidity;BME280_pressure;Samples;Min_cycle;Max_cycle;Signal;HPM_P1;HPM_P2
2023/04/16 00:01:52;;;;;;;;;;;;;;;7.87;100.00;102118.47;4998538;28;20333;-71
2023/04/16 00:04:18;;;;;;;;;;;;;;;7.91;100.00;102114.72;4993962;28;20005;-72
2023/04/16 00:06:43;;;;;;;;;;;;;;;7.91;100.00;102123.63;4981904;28;19926;-71
2023/04/16 00:09:08;;;;;;;;;;;;;;;7.93;100.00;102112.84;4978885;28;19967;-71
2023/04/16 00:11:34;;;;;;;;;;;;;;;7.82;100.00;102118.69;4997881;28;19948;-71
2023/04/16 00:13:59;;;;;;;;;;;;;;;7.78;100.00;102117.09;4987724;28;20030;-71
2023/04/16 00:16:24;;;;;;;;;;;;;;;7.81;100.00;102123.16;4999109;28;19937;-70
2023/04/16 00:18:49;;;;;;;;;;;;;;;7.80;100.00;102120.56;4977104;28;20263;-71
2023/04/16 00:21:15;;;;;;;;;;;;;;;7.86;100.00;102120.31;5001182;28;19944;-71
2023/04/16 00:23:41;;;;;;;;;;;;;;;7.79;100.00;102124.19;4999675;28;20009;-71
2023/04/16 00:26:07;;;;;;;;;;;;;;;7.92;100.00;102114.69;5007139;28;20376;-71
2023/04/16 00:28:32;;;;;;;;;;;;;;;7.85;100.00;102123.03;5001448;28;19929;-71
2023/04/16 00:30:59;;;;;;;;;;;;;;;7.90;100.00;102119.22;4995025;28;19921;-71
2023/04/16 00:33:25;;;;;;;;;;;;;;;7.89;100.00;102116.59;4986225;28;19921;-72
2023/04/16 00:35:50;;;;;;;;;;;;;;;7.91;100.00;102115.63;4999110;28;19944;-71
2023/04/16 00:38:15;;;;;;;;;;;;;;;7.91;100.00;102120.06;4990744;28;20372;-71
2023/04/16 00:40:40;;;;;;;;;;;;;;;7.96;100.00;102112.72;4985016;28;19979;-71
2023/04/16 00:43:06;;;;;;;;;;;;;;;7.93;100.00;102115.53;5003779;28;19948;-71
2023/04/16 00:45:31;;;;;;;;;;;;;;;7.86;100.00;102117.63;4988283;28;19953;-71
2023/04/16 00:47:57;;;;;;;;;;;;;;;7.85;100.00;102121.22;4993433;28;19999;-71
2023/04/16 00:50:22;;;;;;;;;;;;;;;7.81;100.00;102117.81;4986477;28;20438;-71
2023/04/16 00:52:47;;;;;;;;;;;;;;;7.82;100.00;102121.38;5007810;28;19925;-71
2023/04/16 00:55:14;;;;;;;;;;;;;;;7.78;100.00;102122.44;4988794;28;19925;-71
2023/04/16 00:57:39;;;;;;;;;;;;;;;7.76;100.00;102122.53;5005863;28;19925;-71
2023/04/16 01:00:05;;;;;;;;;;;;;;;7.88;100.00;102121.09;4992505;28;19921;-71
2023/04/16 01:02:30;;;;;;;;;;;;;;;7.81;100.00;102130.34;4989807;28;19929;-71
2023/04/16 01:04:55;;;;;;;;;;;;;;;7.84;100.00;102127.53;4990018;28;19985;-71
2023/04/16 01:07:20;;;;;;;;;;;;;;;7.90;100.00;102121.00;5001327;28;20307;-71
2023/04/16 01:09:46;;;;;;;;;;;;;;;7.99;100.00;102127.75;4989527;28;19925;-71
2023/04/16 01:12:11;;;;;;;;;;;;;;;7.99;100.00;102117.94;4986641;28;19928;-71
2023/04/16 01:14:36;;;;;;;;;;;;;;;8.00;100.00;102117.00;4985105;28;20477;-71
2023/04/16 01:17:02;;;;;;;;;;;;;;;7.99;100.00;102115.25;5003666;28;20346;-71
2023/04/16 01:19:30;;;;;;;;;;;;;;;8.00;100.00;102113.44;5006875;28;19922;-71
2023/04/16 01:21:55;;;;;;;;;;;;;;;7.93;100.00;102110.19;5003574;28;19925;-71
2023/04/16 01:24:20;;;;;;;;;;;;;;;8.05;100.00;102122.09;4999817;28;19929;-71
2023/04/16 01:26:45;;;;;;;;;;;;;;;8.02;100.00;102116.91;4991359;28;20040;-71
2023/04/16 01:29:10;;;;;;;;;;;;;;;8.01;100.00;102126.75;4989494;28;20287;-71
2023/04/16 01:31:36;;;;;;;;;;;;;;;8.01;100.00;102120.50;4984712;28;19968;-71
2023/04/16 01:34:01;;;;;;;;;;;;;;;8.04;100.00;102123.94;4984761;28;19970;-71
2023/04/16 01:36:26;;;;;;;;;;;;;;;8.03;100.00;102106.16;4987790;28;19927;-71
2023/04/16 01:38:51;;;;;;;;;;;;;;;8.14;100.00;102118.13;4987041;28;19940;-71
2023/04/16 01:41:17;;;;;;;;;;;;;;;8.10;100.00;102114.75;4995648;28;20087;-71
2023/04/16 01:43:42;;;;;;;;;;;;;;;8.13;100.00;102113.72;4989799;28;19948;-71
2023/04/16 01:46:15;;;;;;;;;;;;;;;8.08;100.00;102112.13;5000337;28;19925;-71
2023/04/16 01:48:40;;;;;;;;;;;;;;;8.03;100.00;102121.31;4987958;28;19960;-72
2023/04/16 01:51:05;;;;;;;;;;;;;;;7.94;100.00;102120.81;5002075;28;20052;-71
2023/04/16 01:53:30;;;;;;;;;;;;;;;8.04;100.00;102131.06;4988746;28;20283;-71
2023/04/16 01:55:56;;;;;;;;;;;;;;;8.03;100.00;102124.00;4985639;28;19925;-71
2023/04/16 01:58:21;;;;;;;;;;;;;;;8.03;100.00;102124.00;4991072;28;19976;-71
2023/04/16 02:00:46;;;;;;;;;;;;;;;8.09;100.00;102127.22;4986588;28;20000;-71
2023/04/16 02:03:11;;;;;;;;;;;;;;;8.01;100.00;102115.16;4990249;28;19929;-71
2023/04/16 02:05:36;;;;;;;;;;;;;;;7.88;100.00;102126.44;4988235;28;19922;-71
2023/04/16 02:08:02;;;;;;;;;;;;;;;7.92;100.00;102136.06;5002805;28;19983;-71
2023/04/16 02:10:27;;;;;;;;;;;;;;;7.86;100.00;102125.66;4987867;28;19944;-71
2023/04/16 02:12:52;;;;;;;;;;;;;;;7.93;100.00;102135.13;4988835;28;20282;-71
2023/04/16 02:15:17;;;;;;;;;;;;;;;8.00;100.00;102135.72;4984133;28;20412;-71
2023/04/16 02:17:43;;;;;;;;;;;;;;;8.02;100.00;102138.31;4998643;28;20394;-71
2023/04/16 02:20:09;;;;;;;;;;;;;;;8.03;100.00;102132.91;5005452;28;19968;-71
2023/04/16 02:22:34;;;;;;;;;;;;;;;8.07;100.00;102133.59;5005645;28;20329;-71
2023/04/16 02:25:00;;;;;;;;;;;;;;;8.11;100.00;102127.19;4988931;28;20000;-71
2023/04/16 02:27:25;;;;;;;;;;;;;;;8.09;100.00;102124.56;4985450;28;19921;-71
2023/04/16 02:29:50;;;;;;;;;;;;;;;8.18;100.00;102128.63;4976647;28;20282;-71
2023/04/16 02:32:15;;;;;;;;;;;;;;;8.08;100.00;102124.66;4983147;28;19925;-71
2023/04/16 02:34:41;;;;;;;;;;;;;;;8.13;100.00;102127.09;4987476;28;19922;-71
2023/04/16 02:37:07;;;;;;;;;;;;;;;8.11;100.00;102120.00;4986719;28;19926;-71
2023/04/16 02:39:32;;;;;;;;;;;;;;;8.12;100.00;102128.91;4981076;28;19975;-72
2023/04/16 02:41:58;;;;;;;;;;;;;;;8.18;100.00;102128.63;4996546;28;19959;-71
2023/04/16 02:44:23;;;;;;;;;;;;;;;8.18;100.00;102125.97;5002595;28;19988;-71
2023/04/16 02:46:48;;;;;;;;;;;;;;;8.13;100.00;102133.34;4987678;28;19969;-71
2023/04/16 02:49:13;;;;;;;;;;;;;;;8.13;100.00;102132.44;4983003;28;20012;-71
2023/04/16 02:51:39;;;;;;;;;;;;;;;8.16;100.00;102130.50;4983892;28;19921;-71
2023/04/16 02:54:04;;;;;;;;;;;;;;;8.13;100.00;102138.69;4980220;28;19927;-71
2023/04/16 02:56:29;;;;;;;;;;;;;;;8.16;100.00;102127.84;4980507;28;20372;-71
2023/04/16 02:58:55;;;;;;;;;;;;;;;8.14;100.00;102129.72;4989055;28;19949;-71
2023/04/16 03:01:20;;;;;;;;;;;;;;;8.15;100.00;102125.22;4986835;28;19965;-71
2023/04/16 03:03:45;;;;;;;;;;;;;;;8.07;100.00;102126.47;4987345;28;19929;-71
2023/04/16 03:06:10;;;;;;;;;;;;;;;8.09;100.00;102129.91;4984454;28;19933;-71
2023/04/16 03:08:35;;;;;;;;;;;;;;;8.10;100.00;102128.97;4985444;28;19984;-71
2023/04/16 03:11:01;;;;;;;;;;;;;;;8.11;100.00;102138.75;4987405;28;19944;-71
2023/04/16 03:13:26;;;;;;;;;;;;;;;8.16;100.00;102138.53;4984284;28;19976;-71
2023/04/16 03:15:51;;;;;;;;;;;;;;;8.14;100.00;102145.78;4984115;28;20007;-71
2023/04/16 03:18:16;;;;;;;;;;;;;;;8.13;100.00;102152.06;4982379;28;19921;-71
2023/04/16 03:20:42;;;;;;;;;;;;;;;8.18;100.00;102149.16;4985221;28;19922;-71
2023/04/16 03:23:07;;;;;;;;;;;;;;;8.16;100.00;102157.28;5001693;28;19921;-71
2023/04/16 03:25:32;;;;;;;;;;;;;;;8.06;100.00;102155.94;5001918;28;19968;-71
2023/04/16 03:27:57;;;;;;;;;;;;;;;8.11;100.00;102154.78;4986829;28;20339;-71
2023/04/16 03:30:23;;;;;;;;;;;;;;;8.10;100.00;102154.88;5001959;28;19922;-71
2023/04/16 03:32:48;;;;;;;;;;;;;;;8.03;100.00;102153.41;4985453;28;20020;-71
2023/04/16 03:35:13;;;;;;;;;;;;;;;8.09;100.00;102156.66;4986130;28;20007;-71
2023/04/16 03:37:38;;;;;;;;;;;;;;;7.93;100.00;102153.84;4961737;28;19921;-71
2023/04/16 03:40:07;;;;;;;;;;;;;;;8.00;100.00;102159.78;5001359;28;19925;-71
2023/04/16 03:42:32;;;;;;;;;;;;;;;8.08;100.00;102157.59;4988898;28;20415;-71
2023/04/16 03:44:58;;;;;;;;;;;;;;;8.10;100.00;102157.53;5004799;28;19936;-71
2023/04/16 03:47:23;;;;;;;;;;;;;;;8.07;100.00;102157.69;4973679;28;19932;-71
2023/04/16 03:49:48;;;;;;;;;;;;;;;8.09;100.00;102159.34;4991120;28;20590;-71
2023/04/16 03:52:13;;;;;;;;;;;;;;;8.07;100.00;102160.34;4988137;28;19943;-71
2023/04/16 03:54:39;;;;;;;;;;;;;;;8.11;100.00;102161.97;4988473;28;19961;-71
2023/04/16 03:57:04;;;;;;;;;;;;;;;7.98;100.00;102158.09;4985211;28;19932;-71
2023/04/16 03:59:29;;;;;;;;;;;;;;;8.06;100.00;102169.31;4986400;28;19932;-71
2023/04/16 04:01:55;;;;;;;;;;;;;;;8.02;100.00;102165.94;4982959;28;19940;-71
2023/04/16 04:04:20;;;;;;;;;;;;;;;7.98;100.00;102167.00;4988103;28;20402;-71
2023/04/16 04:06:46;;;;;;;;;;;;;;;8.04;100.00;102169.41;4991966;28;19926;-71
2023/04/16 04:09:11;;;;;;;;;;;;;;;8.05;100.00;102168.47;5002145;28;20071;-71
2023/04/16 04:11:36;;;;;;;;;;;;;;;8.02;100.00;102171.28;4986875;28;19949;-71
2023/04/16 04:14:01;;;;;;;;;;;;;;;8.03;100.00;102173.03;4989702;28;20299;-71
2023/04/16 04:16:26;;;;;;;;;;;;;;;8.12;100.00;102174.41;4988909;28;20308;-71
2023/04/16 04:18:52;;;;;;;;;;;;;;;7.98;100.00;102160.78;4986831;28;20451;-71
2023/04/16 04:21:17;;;;;;;;;;;;;;;8.11;100.00;102165.47;4989059;28;20376;-71
2023/04/16 04:23:42;;;;;;;;;;;;;;;8.07;100.00;102174.63;4994033;28;20306;-71
2023/04/16 04:26:07;;;;;;;;;;;;;;;8.17;100.00;102175.06;4986407;28;19971;-71
2023/04/16 04:28:33;;;;;;;;;;;;;;;8.00;100.00;102167.81;4989461;28;19983;-71
2023/04/16 04:30:58;;;;;;;;;;;;;;;8.10;100.00;102169.09;4986439;28;19921;-70
2023/04/16 04:33:27;;;;;;;;;;;;;;;8.08;100.00;102172.78;5001255;28;20018;-71
2023/04/16 04:35:52;;;;;;;;;;;;;;;8.15;100.00;102168.03;4981157;28;19929;-71
2023/04/16 04:38:18;;;;;;;;;;;;;;;8.19;100.00;102180.31;4981830;28;19921;-71
2023/04/16 04:40:44;;;;;;;;;;;;;;;8.15;100.00;102179.63;4984468;28;19921;-71
2023/04/16 04:43:09;;;;;;;;;;;;;;;8.15;100.00;102184.06;4980149;28;19936;-71
2023/04/16 04:45:35;;;;;;;;;;;;;;;8.15;100.00;102186.75;4981060;28;19921;-71
2023/04/16 04:48:00;;;;;;;;;;;;;;;8.18;100.00;102187.50;4979563;28;19961;-71
2023/04/16 04:50:25;;;;;;;;;;;;;;;8.14;100.00;102185.91;4976572;28;19949;-71
2023/04/16 04:52:50;;;;;;;;;;;;;;;8.04;100.00;102187.25;4985465;28;20632;-71
2023/04/16 04:55:15;;;;;;;;;;;;;;;8.06;100.00;102188.03;4999795;28;19978;-72
2023/04/16 04:57:41;;;;;;;;;;;;;;;8.11;100.00;102197.59;4984597;28;20443;-71
2023/04/16 05:00:06;;;;;;;;;;;;;;;8.17;100.00;102198.25;4994273;28;19925;-71
2023/04/16 05:02:32;;;;;;;;;;;;;;;8.16;100.00;102201.88;4982118;28;20303;-71
2023/04/16 05:04:57;;;;;;;;;;;;;;;8.19;100.00;102201.72;4983153;28;19933;-71
2023/04/16 05:07:22;;;;;;;;;;;;;;;8.17;100.00;102206.28;4983473;28;19983;-71
2023/04/16 05:09:47;;;;;;;;;;;;;;;8.16;100.00;102204.53;4972178;28;20333;-71
2023/04/16 05:12:13;;;;;;;;;;;;;;;8.10;100.00;102209.22;4974931;28;19928;-71
2023/04/16 05:14:38;;;;;;;;;;;;;;;8.16;100.00;102193.84;4991293;28;19934;-71
2023/04/16 05:17:03;;;;;;;;;;;;;;;8.23;100.00;102204.19;4981112;28;19921;-71
2023/04/16 05:19:28;;;;;;;;;;;;;;;8.24;100.00;102207.75;4988514;28;19928;-71
2023/04/16 05:21:53;;;;;;;;;;;;;;;8.26;100.00;102201.38;4988282;28;19960;-71
2023/04/16 05:24:19;;;;;;;;;;;;;;;8.19;100.00;102212.44;5004286;28;20456;-71
2023/04/16 05:26:44;;;;;;;;;;;;;;;8.18;100.00;102202.66;4990594;28;19922;-71
2023/04/16 05:29:09;;;;;;;;;;;;;;;8.17;100.00;102212.50;4987273;28;19965;-72
2023/04/16 05:31:35;;;;;;;;;;;;;;;8.21;100.00;102211.41;4983676;28;20343;-71
2023/04/16 05:34:00;;;;;;;;;;;;;;;8.19;100.00;102207.06;4989351;28;19921;-71
2023/04/16 05:36:25;;;;;;;;;;;;;;;8.18;100.00;102208.91;4989886;28;20202;-71
2023/04/16 05:38:50;;;;;;;;;;;;;;;8.23;100.00;102211.34;4988957;28;20020;-71
2023/04/16 05:41:16;;;;;;;;;;;;;;;8.25;100.00;102212.16;4987685;28;20391;-71
2023/04/16 05:43:41;;;;;;;;;;;;;;;8.36;100.00;102215.19;4988897;28;20499;-71
2023/04/16 05:46:06;;;;;;;;;;;;;;;8.30;100.00;102214.59;4988318;28;19932;-71
2023/04/16 05:48:31;;;;;;;;;;;;;;;8.24;100.00;102221.13;5007818;28;19955;-71
2023/04/16 05:50:56;;;;;;;;;;;;;;;8.35;100.00;102216.13;4986217;28;19926;-71
2023/04/16 05:53:22;;;;;;;;;;;;;;;8.33;100.00;102219.81;4985965;28;19977;-71
2023/04/16 05:55:47;;;;;;;;;;;;;;;8.25;100.00;102225.53;4988108;28;19969;-71
2023/04/16 05:58:13;;;;;;;;;;;;;;;8.31;100.00;102225.25;4985440;28;19960;-71
2023/04/16 06:00:38;;;;;;;;;;;;;;;8.33;100.00;102226.06;4984896;28;20043;-71
2023/04/16 06:03:03;;;;;;;;;;;;;;;8.31;100.00;102229.72;5000636;28;19921;-71
2023/04/16 06:05:29;;;;;;;;;;;;;;;8.36;100.00;102225.03;4983880;28;19929;-71
2023/04/16 06:07:55;;;;;;;;;;;;;;;8.33;100.00;102231.41;4998248;28;19922;-71
2023/04/16 06:10:20;;;;;;;;;;;;;;;8.30;100.00;102230.66;5000601;28;20319;-71
2023/04/16 06:12:45;;;;;;;;;;;;;;;8.35;100.00;102237.53;4987884;28;19940;-71
2023/04/16 06:15:10;;;;;;;;;;;;;;;8.40;100.00;102238.19;4990103;28;19925;-71
2023/04/16 06:17:35;;;;;;;;;;;;;;;8.40;100.00;102237.34;4983291;28;20008;-71
2023/04/16 06:20:01;;;;;;;;;;;;;;;8.43;100.00;102239.00;4987835;28;19933;-72
2023/04/16 06:22:26;;;;;;;;;;;;;;;8.45;100.00;102243.34;4994556;28;20463;-71
2023/04/16 06:24:51;;;;;;;;;;;;;;;8.48;100.00;102242.34;4985627;28;19929;-71
2023/04/16 06:27:17;;;;;;;;;;;;;;;8.48;100.00;102239.66;4985601;28;19925;-71
2023/04/16 06:29:42;;;;;;;;;;;;;;;8.49;100.00;102244.09;4976333;28;20520;-71
2023/04/16 06:32:07;;;;;;;;;;;;;;;8.51;100.00;102243.06;4972727;28;20435;-71
2023/04/16 06:34:32;;;;;;;;;;;;;;;8.49;100.00;102246.78;5008382;28;19983;-71
2023/04/16 06:36:57;;;;;;;;;;;;;;;8.49;100.00;102249.47;4985971;28;20394;-71
2023/04/16 06:39:23;;;;;;;;;;;;;;;8.53;100.00;102262.63;4984499;28;19944;-71
2023/04/16 06:41:48;;;;;;;;;;;;;;;8.57;100.00;102260.69;4993371;28;20389;-71
2023/04/16 06:44:13;;;;;;;;;;;;;;;8.59;100.00;102261.50;4981286;28;19984;-71
2023/04/16 06:46:39;;;;;;;;;;;;;;;8.68;100.00;102269.06;5002020;28;19925;-71
2023/04/16 06:49:06;;;;;;;;;;;;;;;8.74;100.00;102265.22;4984315;28;21532;-71
2023/04/16 06:51:31;;;;;;;;;;;;;;;8.74;100.00;102272.41;4992502;28;19921;-71
2023/04/16 06:53:56;;;;;;;;;;;;;;;8.72;100.00;102274.28;4981854;28;20411;-71
2023/04/16 06:56:22;;;;;;;;;;;;;;;8.68;100.00;102274.41;4982660;28;19929;-71
2023/04/16 06:58:47;;;;;;;;;;;;;;;8.71;100.00;102276.09;4981157;28;19925;-71
2023/04/16 07:01:12;;;;;;;;;;;;;;;8.76;100.00;102274.06;4985958;28;19926;-71
2023/04/16 07:03:37;;;;;;;;;;;;;;;8.81;100.00;102280.06;4982922;28;19925;-71
2023/04/16 07:06:02;;;;;;;;;;;;;;;8.80;100.00;102280.16;4991075;28;19921;-71
2023/04/16 07:08:28;;;;;;;;;;;;;;;8.83;100.00;102282.69;4984699;28;20024;-71
2023/04/16 07:10:53;;;;;;;;;;;;;;;8.79;100.00;102289.13;4988684;28;20552;-71
2023/04/16 07:13:18;;;;;;;;;;;;;;;8.82;100.00;102291.66;4983304;28;19921;-71
2023/04/16 07:15:44;;;;;;;;;;;;;;;8.81;100.00;102288.09;4989700;28;20712;-71
2023/04/16 07:18:09;;;;;;;;;;;;;;;8.79;100.00;102291.81;4988942;28;19926;-72
2023/04/16 07:20:35;;;;;;;;;;;;;;;8.82;100.00;102294.34;4985182;28;19953;-71
2023/04/16 07:23:00;;;;;;;;;;;;;;;8.80;100.00;102294.41;4985435;28;20052;-71
2023/04/16 07:25:25;;;;;;;;;;;;;;;8.91;100.00;102293.03;4990027;28;19972;-71
2023/04/16 07:27:51;;;;;;;;;;;;;;;8.91;100.00;102296.56;4991084;28;20017;-71
2023/04/16 07:30:16;;;;;;;;;;;;;;;8.92;100.00;102300.97;4987950;28;19957;-71
2023/04/16 07:32:41;;;;;;;;;;;;;;;8.95;100.00;102306.19;4988037;28;20043;-71
2023/04/16 07:35:06;;;;;;;;;;;;;;;8.99;100.00;102297.06;4988996;28;19967;-71
2023/04/16 07:37:32;;;;;;;;;;;;;;;8.99;100.00;102290.88;4988846;28;19956;-72
2023/04/16 07:39:57;;;;;;;;;;;;;;;9.04;100.00;102312.06;4998903;28;19932;-71
2023/04/16 07:42:22;;;;;;;;;;;;;;;9.07;100.00;102310.09;4981449;28;19993;-71
2023/04/16 07:44:47;;;;;;;;;;;;;;;9.12;100.00;102310.75;4979779;28;20360;-71
2023/04/16 07:47:12;;;;;;;;;;;;;;;9.15;100.00;102309.72;4986093;28;20708;-71
2023/04/16 07:49:38;;;;;;;;;;;;;;;9.15;100.00;102313.28;4987055;28;19965;-71
2023/04/16 07:52:03;;;;;;;;;;;;;;;9.20;100.00;102315.72;4984256;28;19959;-71
2023/04/16 07:54:28;;;;;;;;;;;;;;;9.20;100.00;102328.28;4986501;28;20348;-71
2023/04/16 07:56:53;;;;;;;;;;;;;;;9.35;100.00;102327.53;5005679;28;19933;-70
2023/04/16 07:59:19;;;;;;;;;;;;;;;9.46;100.00;102329.69;4985822;28;19937;-71
2023/04/16 08:01:44;;;;;;;;;;;;;;;9.49;100.00;102324.16;4987148;28;19921;-71
2023/04/16 08:04:10;;;;;;;;;;;;;;;9.59;100.00;102332.63;4990151;28;19980;-71
2023/04/16 08:06:35;;;;;;;;;;;;;;;9.60;100.00;102331.66;4990485;28;19989;-71
2023/04/16 08:09:00;;;;;;;;;;;;;;;9.65;100.00;102335.00;4989965;28;19965;-71
2023/04/16 08:11:25;;;;;;;;;;;;;;;9.63;100.00;102331.53;4987969;28;20121;-71
2023/04/16 08:13:51;;;;;;;;;;;;;;;9.65;100.00;102339.50;4984804;28;19994;-71
2023/04/16 08:16:16;;;;;;;;;;;;;;;9.73;100.00;102334.59;4986789;28;19926;-71
2023/04/16 08:18:41;;;;;;;;;;;;;;;9.77;100.00;102343.38;4990128;28;19925;-71
2023/04/16 08:21:06;;;;;;;;;;;;;;;9.74;100.00;102342.59;5001751;28;20380;-71
2023/04/16 08:23:31;;;;;;;;;;;;;;;9.75;100.00;102341.66;5004306;28;20370;-72
2023/04/16 08:25:57;;;;;;;;;;;;;;;9.76;100.00;102339.81;4988411;28;19936;-71
2023/04/16 08:28:22;;;;;;;;;;;;;;;9.83;100.00;102343.94;4988227;28;19921;-72
2023/04/16 08:30:47;;;;;;;;;;;;;;;9.89;100.00;102351.69;4998442;28;19926;-71
2023/04/16 08:33:13;;;;;;;;;;;;;;;9.97;100.00;102353.09;4985159;28;20353;-71
2023/04/16 08:35:38;;;;;;;;;;;;;;;10.04;100.00;102351.81;4988017;28;19952;-71
2023/04/16 08:38:03;;;;;;;;;;;;;;;9.96;100.00;102348.66;4989950;28;19925;-72
2023/04/16 08:40:29;;;;;;;;;;;;;;;10.05;100.00;102348.19;4990638;28;19926;-71
2023/04/16 08:42:55;;;;;;;;;;;;;;;10.04;100.00;102357.19;4975898;28;19997;-70
2023/04/16 08:45:20;;;;;;;;;;;;;;;9.93;100.00;102356.91;4998247;28;19930;-71
2023/04/16 08:47:50;;;;;;;;;;;;;;;9.94;100.00;102366.66;4994375;28;20104;-71
2023/04/16 08:50:15;;;;;;;;;;;;;;;10.03;100.00;102366.19;4991783;28;19925;-71
2023/04/16 08:52:42;;;;;;;;;;;;;;;10.12;100.00;102379.16;4996827;28;19928;-71
2023/04/16 08:55:10;;;;;;;;;;;;;;;10.27;100.00;102376.59;5007629;28;20491;-71
2023/04/16 08:57:37;;;;;;;;;;;;;;;10.37;100.00;102375.19;5003526;28;19925;-71
2023/04/16 09:00:02;;;;;;;;;;;;;;;10.37;100.00;102380.56;4998138;28;19925;-71
2023/04/16 09:02:28;;;;;;;;;;;;;;;10.43;100.00;102374.03;4994415;28;19933;-71
2023/04/16 09:04:53;;;;;;;;;;;;;;;10.16;100.00;102372.69;5011485;28;19948;-71
2023/04/16 09:07:18;;;;;;;;;;;;;;;10.34;100.00;102376.19;5011455;28;20051;-71
2023/04/16 09:09:43;;;;;;;;;;;;;;;10.35;100.00;102375.25;4992289;28;19928;-71
2023/04/16 09:12:09;;;;;;;;;;;;;;;10.48;100.00;102382.72;5004212;28;20407;-71
2023/04/16 09:14:34;;;;;;;;;;;;;;;10.59;100.00;102377.66;4991381;28;19925;-71
2023/04/16 09:17:01;;;;;;;;;;;;;;;10.41;100.00;102375.91;4988816;28;19964;-71
2023/04/16 09:19:26;;;;;;;;;;;;;;;10.64;100.00;102386.31;4994176;28;19925;-71
2023/04/16 09:21:51;;;;;;;;;;;;;;;10.73;100.00;102384.09;4992157;28;19972;-71
2023/04/16 09:24:17;;;;;;;;;;;;;;;10.86;100.00;102387.81;4991988;28;19961;-71
2023/04/16 09:26:42;;;;;;;;;;;;;;;10.97;100.00;102378.31;5010254;28;20339;-71
2023/04/16 09:29:08;;;;;;;;;;;;;;;11.04;100.00;102383.25;4985473;28;20163;-71
2023/04/16 09:31:33;;;;;;;;;;;;;;;11.04;100.00;102377.03;4988906;28;20310;-71
2023/04/16 09:34:02;;;;;;;;;;;;;;;11.09;100.00;102383.03;4990820;28;20024;-71
2023/04/16 09:36:28;;;;;;;;;;;;;;;11.17;100.00;102390.66;4996962;28;19926;-71
2023/04/16 09:38:53;;;;;;;;;;;;;;;11.23;100.00;102384.94;4992515;28;20330;-72
2023/04/16 09:41:19;;;;;;;;;;;;;;;11.29;100.00;102387.28;4995338;28;19925;-71
2023/04/16 09:43:55;;;;;;;;;;;;;;;11.33;100.00;102393.38;4992213;28;19925;-71
2023/04/16 09:46:20;;;;;;;;;;;;;;;11.27;100.00;102394.56;4987982;28;19936;-71
2023/04/16 09:48:46;;;;;;;;;;;;;;;11.31;100.00;102401.50;4975495;28;20329;-71
2023/04/16 09:51:11;;;;;;;;;;;;;;;11.29;100.00;102403.41;4986000;28;19961;-71
2023/04/16 09:53:36;;;;;;;;;;;;;;;11.26;100.00;102395.50;4986975;28;20158;-71
2023/04/16 09:56:03;;;;;;;;;;;;;;;11.20;100.00;102398.56;4986081;28;19921;-71
2023/04/16 09:58:28;;;;;;;;;;;;;;;11.37;100.00;102395.78;4992679;28;20040;-71
2023/04/16 10:00:54;;;;;;;;;;;;;;;11.50;100.00;102401.34;4988452;28;20449;-71
2023/04/16 10:03:27;;;;;;;;;;;;;;;11.52;100.00;102395.88;4988500;28;19928;-71
2023/04/16 10:05:52;;;;;;;;;;;;;;;11.57;100.00;102403.69;4988871;28;20171;-71
2023/04/16 10:08:18;;;;;;;;;;;;;;;11.62;100.00;102399.75;4986265;28;20334;-71
2023/04/16 10:10:43;;;;;;;;;;;;;;;11.61;100.00;102398.03;4987413;28;20560;-71
2023/04/16 10:13:08;;;;;;;;;;;;;;;11.74;100.00;102398.19;4986173;28;20332;-71
2023/04/16 10:15:34;;;;;;;;;;;;;;;11.96;100.00;102396.94;4988319;28;19922;-71
2023/04/16 10:17:59;;;;;;;;;;;;;;;11.94;100.00;102393.47;4978934;28;20036;-71
2023/04/16 10:20:24;;;;;;;;;;;;;;;12.10;100.00;102399.72;4990943;28;19980;-71
2023/04/16 10:22:50;;;;;;;;;;;;;;;12.21;100.00;102398.19;4992075;28;19921;-71
2023/04/16 10:25:15;;;;;;;;;;;;;;;12.13;100.00;102393.28;5002251;28;19961;-71
2023/04/16 10:27:40;;;;;;;;;;;;;;;11.72;100.00;102388.47;5008339;28;20024;-71
2023/04/16 10:30:06;;;;;;;;;;;;;;;11.89;100.00;102396.44;4993341;28;19921;-71
2023/04/16 10:32:32;;;;;;;;;;;;;;;11.95;100.00;102401.47;5000980;28;20347;-71
2023/04/16 10:34:57;;;;;;;;;;;;;;;12.15;100.00;102399.44;4991987;28;20493;-71
2023/04/16 10:37:32;;;;;;;;;;;;;;;12.21;100.00;102393.69;4990787;28;19957;-71
2023/04/16 10:39:57;;;;;;;;;;;;;;;12.39;100.00;102401.59;4992714;28;20324;-71
2023/04/16 10:42:22;;;;;;;;;;;;;;;12.43;100.00;102395.97;4990859;28;19921;-71
2023/04/16 10:44:48;;;;;;;;;;;;;;;12.67;100.00;102399.91;5003786;28;20300;-72
2023/04/16 10:47:13;;;;;;;;;;;;;;;12.77;100.00;102401.09;4990005;28;19921;-71
2023/04/16 10:49:38;;;;;;;;;;;;;;;12.67;100.00;102406.19;4991749;28;19927;-71
2023/04/16 10:52:08;;;;;;;;;;;;;;;12.22;100.00;102399.94;4992760;28;20228;-71
2023/04/16 10:54:34;;;;;;;;;;;;;;;12.22;100.00;102400.81;5005154;28;19925;-71
2023/04/16 10:57:02;;;;;;;;;;;;;;;12.14;100.00;102398.59;5007107;28;19933;-71
2023/04/16 10:59:31;;;;;;;;;;;;;;;12.40;100.00;102398.84;4993845;28;19921;-71
2023/04/16 11:01:57;;;;;;;;;;;;;;;12.41;100.00;102405.06;4990024;28;20423;-71
2023/04/16 11:04:23;;;;;;;;;;;;;;;12.62;100.00;102400.22;4988111;28;19925;-71
2023/04/16 11:07:07;;;;;;;;;;;;;;;12.74;100.00;102395.88;4989153;28;20447;-71
2023/04/16 11:09:48;;;;;;;;;;;;;;;12.57;100.00;102392.41;4987844;28;19932;-71
2023/04/16 11:12:15;;;;;;;;;;;;;;;12.81;100.00;102388.28;4991716;28;19929;-72
2023/04/16 11:14:40;;;;;;;;;;;;;;;12.66;100.00;102392.78;5005795;28;20268;-71
2023/04/16 11:17:06;;;;;;;;;;;;;;;12.99;100.00;102384.41;4988237;28;20411;-71
2023/04/16 11:19:31;;;;;;;;;;;;;;;13.24;100.00;102385.56;4990619;28;20015;-71
2023/04/16 11:21:56;;;;;;;;;;;;;;;13.10;100.00;102389.16;5004314;28;20307;-71
2023/04/16 11:24:21;;;;;;;;;;;;;;;12.81;100.00;102385.56;4988054;28;20443;-71
2023/04/16 11:26:49;;;;;;;;;;;;;;;12.86;100.00;102396.94;4994022;28;20731;-71
2023/04/16 11:29:15;;;;;;;;;;;;;;;12.86;100.00;102395.09;4986971;28;20001;-71
2023/04/16 11:31:40;;;;;;;;;;;;;;;13.09;100.00;102390.09;4991673;28;19928;-71
2023/04/16 11:34:07;;;;;;;;;;;;;;;13.09;100.00;102381.13;5005732;28;19921;-71
2023/04/16 11:36:42;;;;;;;;;;;;;;;12.88;100.00;102389.63;4988271;28;20006;-71
2023/04/16 11:39:07;;;;;;;;;;;;;;;12.77;100.00;102395.69;4993306;28;19921;-71
2023/04/16 11:41:32;;;;;;;;;;;;;;;13.13;100.00;102391.63;4992149;28;19959;-72
2023/04/16 11:43:57;;;;;;;;;;;;;;;13.05;100.00;102375.94;4995486;28;20472;-71
2023/04/16 11:46:23;;;;;;;;;;;;;;;13.24;100.00;102390.06;4991168;28;19921;-71
2023/04/16 11:48:49;;;;;;;;;;;;;;;13.23;100.00;102377.56;4973113;28;19925;-71
2023/04/16 11:51:14;;;;;;;;;;;;;;;13.23;100.00;102381.13;4999088;28;19937;-71
2023/04/16 11:53:46;;;;;;;;;;;;;;;13.40;100.00;102376.47;4987906;28;19926;-71
2023/04/16 11:56:11;;;;;;;;;;;;;;;13.67;100.00;102378.34;5002018;28;20172;-71
2023/04/16 11:58:37;;;;;;;;;;;;;;;13.78;100.00;102375.75;4989794;28;19956;-71
2023/04/16 12:01:03;;;;;;;;;;;;;;;14.09;100.00;102381.78;4985798;28;19922;-72
2023/04/16 12:03:44;;;;;;;;;;;;;;;13.86;100.00;102388.78;4999401;28;19925;-71
2023/04/16 12:06:09;;;;;;;;;;;;;;;14.23;100.00;102388.94;4986275;28;20439;-71
2023/04/16 12:08:35;;;;;;;;;;;;;;;14.82;100.00;102393.00;4988484;28;19928;-71
2023/04/16 12:11:00;;;;;;;;;;;;;;;14.53;100.00;102383.25;4987205;28;19929;-71
2023/04/16 12:13:25;;;;;;;;;;;;;;;14.05;100.00;102396.47;4988080;28;19932;-71
2023/04/16 12:15:54;;;;;;;;;;;;;;;13.67;100.00;102400.78;4984522;28;20310;-71
2023/04/16 12:18:21;;;;;;;;;;;;;;;13.24;100.00;102403.56;4990452;28;20138;-71
2023/04/16 12:20:47;;;;;;;;;;;;;;;12.90;100.00;102409.28;4990738;28;20020;-68
2023/04/16 12:23:32;;;;;;;;;;;;;;;12.66;100.00;102408.97;4988108;28;19921;-68
2023/04/16 12:26:01;;;;;;;;;;;;;;;12.38;100.00;102419.59;5005446;28;20139;-71